Westchester County Airport
KHPN : now visible

Airfield :











YOU CAN JOIN US ON...

 
LOGIN :

Register | Disclaimer

   EN    FR    IT 

 









Legend :    VFR   Marginal VFR   IFR   Intensive IFR   Very Intensive IFR
Visi :
Ceiling :
>= 8 km
>= 3000ft
5 to 8 km
1000 to 3000 ft
1500m to 5 km
500 to 1000 ft
800 to 1500m
200 to 500 ft
< 800m
< 200 ft
Symbols :   Thunderstorms  Fog  Heavy snow  Heavy precipitations  Wind > 20 kt






- Airport Elevation : 439 ft
- IATA code : HPN


KHPN - Westchester County

CURRENT METAR :
  • 120156Z 27014G17KT 10SM CLR M01/M09 A3035 RMK AO2 SLP286 T10061089

EXPIRED METARs :
  • 120056Z 28011G21KT 10SM CLR 00/M08 A3033 RMK AO2 SLP278 T00001078
  • 112356Z 26008G14KT 10SM CLR 00/M04 A3031 RMK AO2 SLP271 T00001044 10006 20000 53023

TAF KHPN
Valid from the 12 at 00:00 until the 13 at 00:00 UTC


112340Z 1200/1224 27013G20KT P6SM SKC
FM120300 30012G19KT P6SM SKC
FM120900 33006KT P6SM SKC
FM121400 33004KT P6SM FEW250
FM121800 VRB03KT P6SM SCT250
FM122100 16003KT P6SM FEW080 BKN250 AMD NOT SKED



MET'MAP, your aeronautical weather chart ! - Copyright ORBIFLY December 2007 - Disclaimer

ORBIFLY MET'MAP TEAM :

Programming & Development : Alexandra Zaïnal
Concept & original design : Baudouin d'Aumeries
Assistance for programming : Marc-Olivier Méhu
Technical & hardware support : Manuel Goepfert

Contact : metmap@orbifly.com




SOURCES & CREDITS :

   NOAA       Earth
Advisory